Time;durP1;ratioP1;P1;durP2;ratioP2;P2;SDS_P1;SDS_P2;PMS_P1;PMS_P2;Temp;Humidity;BMP_temperature;BMP_pressure;BME280_temperature;BME280_humidity;BME280_pressure;Samples;Min_cycle;Max_cycle;Signal;HPM_P1;HPM_P2
2021/03/14 00:00:28;;;;;;;15.50;14.00;;;5.40;87.30;;;;;;5072668;28;20577;-77
2021/03/14 00:02:54;;;;;;;14.85;14.15;;;5.40;88.60;;;;;;5072697;28;20203;-77
2021/03/14 00:05:21;;;;;;;15.15;14.25;;;5.40;88.30;;;;;;5072692;28;20192;-77
2021/03/14 00:07:47;;;;;;;14.30;13.65;;;5.30;88.00;;;;;;5072589;28;20736;-77
2021/03/14 00:10:15;;;;;;;16.33;15.52;;;5.40;88.10;;;;;;5072685;28;20218;-77
2021/03/14 00:12:41;;;;;;;14.30;13.70;;;5.50;87.50;;;;;;5072606;28;20203;-78
2021/03/14 00:15:09;;;;;;;14.13;13.40;;;5.40;87.50;;;;;;5072058;28;20758;-78
2021/03/14 00:17:35;;;;;;;13.73;13.02;;;5.30;90.80;;;;;;5072459;28;20195;-78
2021/03/14 00:20:03;;;;;;;13.90;13.30;;;5.40;90.40;;;;;;5072476;28;20222;-78
2021/03/14 00:22:29;;;;;;;14.00;13.30;;;5.40;89.90;;;;;;5072638;28;20196;-78
2021/03/14 00:24:55;;;;;;;14.57;13.98;;;5.40;90.60;;;;;;5072443;28;20657;-77
2021/03/14 00:27:22;;;;;;;15.27;14.38;;;5.60;88.00;;;;;;5072462;28;20196;-78
2021/03/14 00:29:49;;;;;;;14.65;14.05;;;5.60;86.90;;;;;;5072444;28;20224;-78
2021/03/14 00:32:15;;;;;;;14.43;13.82;;;5.50;86.40;;;;;;5072826;28;20608;-78
2021/03/14 00:34:41;;;;;;;14.18;13.48;;;5.40;87.10;;;;;;5072624;28;20686;-77
2021/03/14 00:37:08;;;;;;;13.80;13.25;;;5.40;87.70;;;;;;5072353;28;20282;-77
2021/03/14 00:39:34;;;;;;;14.50;13.90;;;5.30;86.80;;;;;;5072309;28;20211;-77
2021/03/14 00:42:01;;;;;;;14.40;13.70;;;5.20;86.90;;;;;;5072376;28;20208;-77
2021/03/14 00:44:29;;;;;;;14.10;13.50;;;5.20;87.10;;;;;;5072507;28;20573;-77
2021/03/14 00:46:55;;;;;;;13.95;13.35;;;5.10;87.60;;;;;;5071827;28;20200;-77
2021/03/14 00:49:22;;;;;;;13.48;12.90;;;5.10;88.60;;;;;;5072284;28;20306;-77
2021/03/14 00:51:49;;;;;;;13.30;12.80;;;5.10;89.00;;;;;;5072173;28;20203;-77
2021/03/14 00:54:15;;;;;;;13.57;12.98;;;5.20;89.30;;;;;;5072276;28;20685;-77
2021/03/14 00:56:42;;;;;;;13.35;12.63;;;5.20;88.70;;;;;;5071897;28;20228;-77
2021/03/14 00:59:08;;;;;;;13.70;13.10;;;5.10;89.60;;;;;;5072032;28;20212;-77
2021/03/14 01:01:36;;;;;;;13.88;13.27;;;5.30;89.20;;;;;;5072237;28;20196;-77
2021/03/14 01:04:02;;;;;;;13.50;13.00;;;5.20;89.00;;;;;;5072214;28;20233;-77
2021/03/14 01:06:28;;;;;;;13.90;13.30;;;5.30;87.90;;;;;;5072028;28;20202;-77
2021/03/14 01:08:55;;;;;;;13.43;12.93;;;5.20;87.90;;;;;;5072040;28;20224;-77
2021/03/14 01:11:21;;;;;;;14.43;13.82;;;5.20;88.70;;;;;;5071944;28;20199;-77
2021/03/14 01:13:47;;;;;;;14.00;13.20;;;5.10;88.50;;;;;;5072146;28;20196;-77
2021/03/14 01:16:15;;;;;;;13.00;12.50;;;5.10;88.20;;;;;;5071782;28;20276;-77
2021/03/14 01:18:42;;;;;;;13.48;12.98;;;5.10;90.00;;;;;;5072050;28;20212;-77
2021/03/14 01:21:09;;;;;;;13.68;13.07;;;5.10;88.80;;;;;;5072092;28;20718;-78
2021/03/14 01:23:35;;;;;;;13.68;12.82;;;5.10;88.50;;;;;;5072133;28;20198;-77
2021/03/14 01:26:01;;;;;;;14.30;13.70;;;5.10;88.50;;;;;;5071756;28;20192;-77
2021/03/14 01:28:28;;;;;;;12.88;12.38;;;5.00;88.60;;;;;;5074491;28;20219;-77
2021/03/14 01:30:54;;;;;;;14.73;13.23;;;5.10;88.70;;;;;;5075507;28;20200;-77
2021/03/14 01:33:21;;;;;;;13.15;12.63;;;4.90;91.50;;;;;;5075396;28;20286;-77
2021/03/14 01:35:48;;;;;;;12.55;12.05;;;4.90;91.30;;;;;;5075380;28;20653;-77
2021/03/14 01:38:14;;;;;;;13.52;12.95;;;4.90;90.70;;;;;;5075278;28;20212;-77
2021/03/14 01:40:40;;;;;;;13.27;12.77;;;5.00;89.50;;;;;;5075394;28;20249;-77
2021/03/14 01:43:07;;;;;;;13.85;13.25;;;5.00;88.80;;;;;;5075317;28;20211;-77
2021/03/14 01:45:33;;;;;;;14.02;13.20;;;5.00;88.90;;;;;;5075089;28;20199;-77
2021/03/14 01:48:03;;;;;;;14.10;13.50;;;5.00;89.10;;;;;;5074852;28;20573;-77
2021/03/14 01:50:31;;;;;;;60.60;17.10;;;5.10;88.90;;;;;;5075462;28;20215;-77
2021/03/14 01:52:58;;;;;;;13.05;12.55;;;5.00;89.10;;;;;;5074778;28;20197;-77
2021/03/14 01:55:25;;;;;;;13.60;13.00;;;5.10;89.80;;;;;;5074920;28;20273;-77
2021/03/14 01:57:51;;;;;;;14.02;13.43;;;4.90;89.40;;;;;;5074970;28;20286;-77
2021/03/14 02:00:20;;;;;;;14.13;13.52;;;4.90;89.60;;;;;;5074958;28;20212;-77
2021/03/14 02:02:47;;;;;;;13.98;13.38;;;5.00;89.10;;;;;;5075057;28;20252;-77
2021/03/14 02:05:15;;;;;;;14.48;13.88;;;5.00;88.70;;;;;;5074876;28;20665;-78
2021/03/14 02:07:43;;;;;;;14.45;13.85;;;5.10;87.20;;;;;;5074723;28;20203;-77
2021/03/14 02:10:12;;;;;;;14.70;14.10;;;5.10;87.00;;;;;;5074690;28;20226;-77
2021/03/14 02:12:44;;;;;;;14.02;13.45;;;5.10;86.80;;;;;;5074756;28;20206;-77
2021/03/14 02:15:12;;;;;;;13.43;12.93;;;5.00;88.30;;;;;;5074696;28;20216;-78
2021/03/14 02:17:40;;;;;;;13.63;13.13;;;5.00;88.50;;;;;;5074531;28;20196;-78
2021/03/14 02:20:11;;;;;;;14.30;13.70;;;5.00;87.60;;;;;;5074520;28;20224;-77
2021/03/14 02:22:41;;;;;;;13.38;12.85;;;5.00;87.00;;;;;;5074513;28;20562;-77
2021/03/14 02:25:13;;;;;;;13.02;12.52;;;5.00;87.70;;;;;;5074794;28;20277;-77
2021/03/14 02:27:42;;;;;;;13.45;12.95;;;5.00;88.10;;;;;;5074442;28;20205;-78
2021/03/14 02:30:10;;;;;;;13.57;13.07;;;5.00;88.20;;;;;;5074447;28;20302;-78
2021/03/14 02:32:37;;;;;;;13.10;12.60;;;5.00;87.90;;;;;;5074359;28;20587;-77
2021/03/14 02:35:05;;;;;;;12.93;12.43;;;5.00;87.50;;;;;;5074234;28;20216;-77
2021/03/14 02:37:33;;;;;;;13.50;13.00;;;4.90;87.60;;;;;;5073980;28;20248;-77
2021/03/14 02:40:02;;;;;;;13.70;12.85;;;4.90;88.00;;;;;;5074002;28;20216;-77
2021/03/14 02:42:30;;;;;;;13.10;12.60;;;4.90;88.00;;;;;;5074601;28;20286;-77
2021/03/14 02:44:58;;;;;;;13.20;12.70;;;4.80;87.70;;;;;;5074311;28;20607;-77
2021/03/14 02:47:26;;;;;;;13.60;13.00;;;4.80;88.10;;;;;;5073561;28;20199;-77
2021/03/14 02:49:54;;;;;;;13.82;13.13;;;4.80;88.20;;;;;;5073866;28;20724;-77
2021/03/14 02:52:22;;;;;;;13.40;12.90;;;4.70;88.40;;;;;;5073835;28;20203;-78
2021/03/14 02:54:51;;;;;;;13.32;12.82;;;4.80;88.60;;;;;;5073906;28;20280;-78
2021/03/14 02:57:21;;;;;;;13.90;13.30;;;4.70;88.70;;;;;;5073837;28;20212;-77
2021/03/14 02:59:49;;;;;;;13.18;12.68;;;4.70;89.10;;;;;;5073733;28;20211;-78
2021/03/14 03:02:17;;;;;;;13.40;12.90;;;4.80;89.00;;;;;;5073738;28;20290;-77
2021/03/14 03:04:44;;;;;;;14.00;13.40;;;4.80;88.90;;;;;;5073628;28;20291;-78
2021/03/14 03:07:13;;;;;;;13.40;12.90;;;4.80;89.10;;;;;;5073558;28;20192;-77
2021/03/14 03:09:40;;;;;;;13.50;13.00;;;4.90;88.50;;;;;;5073769;28;20690;-77
2021/03/14 03:12:08;;;;;;;12.35;11.85;;;4.90;88.90;;;;;;5073868;28;20222;-77
2021/03/14 03:14:35;;;;;;;13.50;12.90;;;4.80;90.30;;;;;;5073714;28;20207;-77
2021/03/14 03:17:02;;;;;;;13.48;12.95;;;4.80;89.40;;;;;;5073342;28;20273;-77
2021/03/14 03:19:29;;;;;;;13.38;12.88;;;4.80;88.70;;;;;;5073445;28;20220;-77
2021/03/14 03:21:56;;;;;;;13.90;13.40;;;4.80;88.50;;;;;;5073380;28;20640;-78
2021/03/14 03:24:22;;;;;;;13.82;13.23;;;4.80;88.60;;;;;;5073466;28;20214;-77
2021/03/14 03:26:50;;;;;;;23.48;14.65;;;4.80;88.30;;;;;;5073103;28;20608;-78
2021/03/14 03:29:17;;;;;;;13.70;13.15;;;4.80;88.40;;;;;;5073301;28;20348;-77
2021/03/14 03:31:45;;;;;;;14.45;13.00;;;4.80;88.90;;;;;;5073368;28;20192;-78
2021/03/14 03:34:12;;;;;;;13.70;13.10;;;4.80;90.20;;;;;;5073606;28;20198;-77
2021/03/14 03:36:40;;;;;;;13.77;13.18;;;4.70;89.50;;;;;;5073274;28;20220;-77
2021/03/14 03:39:08;;;;;;;13.98;13.40;;;4.70;89.80;;;;;;5073086;28;20212;-77
2021/03/14 03:41:36;;;;;;;14.38;13.77;;;4.60;89.40;;;;;;5073143;28;20745;-77
2021/03/14 03:44:05;;;;;;;14.02;12.85;;;4.60;89.60;;;;;;5072975;28;20215;-77
2021/03/14 03:46:33;;;;;;;13.90;13.30;;;4.60;91.00;;;;;;5072580;28;20238;-77
2021/03/14 03:48:59;;;;;;;14.20;13.50;;;4.70;89.70;;;;;;5072848;28;20219;-77
2021/03/14 03:51:28;;;;;;;13.05;12.55;;;4.70;89.50;;;;;;5072352;28;20278;-77
2021/03/14 03:53:59;;;;;;;13.63;13.02;;;4.70;89.50;;;;;;5072517;28;20203;-77
2021/03/14 03:56:26;;;;;;;13.80;13.30;;;4.60;89.30;;;;;;5072689;28;20227;-77
2021/03/14 03:58:53;;;;;;;14.02;13.43;;;4.60;89.70;;;;;;5072708;28;20222;-77
2021/03/14 04:01:21;;;;;;;13.50;13.00;;;4.60;89.40;;;;;;5072842;28;20210;-77
2021/03/14 04:03:49;;;;;;;13.43;12.93;;;4.70;89.40;;;;;;5072801;28;20257;-77
2021/03/14 04:06:17;;;;;;;16.75;16.05;;;4.70;89.30;;;;;;5072682;28;20196;-77
2021/03/14 04:08:46;;;;;;;15.82;14.65;;;4.60;90.50;;;;;;5072712;28;20259;-77
2021/03/14 04:11:17;;;;;;;13.52;13.02;;;4.60;90.30;;;;;;5072726;28;20679;-77
2021/03/14 04:13:44;;;;;;;13.48;12.95;;;4.50;90.40;;;;;;5072704;28;20196;-77
2021/03/14 04:16:11;;;;;;;14.35;13.75;;;4.60;90.20;;;;;;5072602;28;20630;-76
2021/03/14 04:18:40;;;;;;;13.95;13.35;;;4.60;89.80;;;;;;5072661;28;20216;-77
2021/03/14 04:21:10;;;;;;;13.70;13.10;;;4.70;89.30;;;;;;5072572;28;20241;-77
2021/03/14 04:23:40;;;;;;;13.50;13.00;;;4.60;89.20;;;;;;5072460;28;20204;-77
2021/03/14 04:26:07;;;;;;;13.75;13.15;;;4.60;89.30;;;;;;5072536;28;20290;-76
2021/03/14 04:28:36;;;;;;;13.30;12.80;;;4.50;89.70;;;;;;5072519;28;20219;-77
2021/03/14 04:31:04;;;;;;;14.30;13.70;;;4.50;90.50;;;;;;5072585;28;20550;-76
2021/03/14 04:33:31;;;;;;;13.77;13.18;;;4.50;90.10;;;;;;5072386;28;20241;-77
2021/03/14 04:35:59;;;;;;;14.40;13.80;;;4.60;89.40;;;;;;5072337;28;20223;-77
2021/03/14 04:38:27;;;;;;;13.88;13.27;;;4.60;88.90;;;;;;5072538;28;20326;-77
2021/03/14 04:40:54;;;;;;;13.75;13.15;;;4.60;88.90;;;;;;5072735;28;20200;-77
2021/03/14 04:43:21;;;;;;;14.30;13.70;;;4.60;89.40;;;;;;5072346;28;20654;-77
2021/03/14 04:45:50;;;;;;;14.20;13.50;;;4.50;89.40;;;;;;5072116;28;20196;-77
2021/03/14 04:48:17;;;;;;;14.13;13.43;;;4.60;89.20;;;;;;5071787;28;20547;-77
2021/03/14 04:50:45;;;;;;;13.80;13.10;;;4.60;89.40;;;;;;5072306;28;20198;-77
2021/03/14 04:53:13;;;;;;;14.00;13.40;;;4.60;89.20;;;;;;5072174;28;20223;-77
2021/03/14 04:55:42;;;;;;;13.23;12.63;;;4.50;88.90;;;;;;5072182;28;20244;-77
2021/03/14 04:58:13;;;;;;;13.50;12.90;;;4.60;89.10;;;;;;5072126;28;20249;-77
2021/03/14 05:00:40;;;;;;;14.20;13.50;;;4.50;88.50;;;;;;5072410;28;20198;-77
2021/03/14 05:03:11;;;;;;;13.82;13.02;;;4.50;88.70;;;;;;5075900;28;20425;-77
2021/03/14 05:05:39;;;;;;;15.73;15.02;;;4.50;88.40;;;;;;5075983;28;20196;-76
2021/03/14 05:08:07;;;;;;;15.13;14.40;;;4.40;89.10;;;;;;5075993;28;20192;-76
2021/03/14 05:10:34;;;;;;;14.98;14.27;;;4.40;88.40;;;;;;5076038;28;20207;-77
2021/03/14 05:13:01;;;;;;;14.95;14.25;;;4.30;88.20;;;;;;5075843;28;20196;-76
2021/03/14 05:15:28;;;;;;;14.65;13.95;;;4.20;88.70;;;;;;5075652;28;20581;-76
2021/03/14 05:17:55;;;;;;;14.23;13.52;;;4.20;88.40;;;;;;5075979;28;20192;-77
2021/03/14 05:20:23;;;;;;;15.18;14.48;;;4.20;88.70;;;;;;5075712;28;20712;-77
2021/03/14 05:22:51;;;;;;;14.55;13.95;;;4.10;89.10;;;;;;5075696;28;20204;-77
2021/03/14 05:25:19;;;;;;;13.98;13.25;;;4.10;88.90;;;;;;5075623;28;20192;-77
2021/03/14 05:27:49;;;;;;;14.43;13.77;;;4.10;89.30;;;;;;5075414;28;20196;-77
2021/03/14 05:30:18;;;;;;;14.55;13.95;;;4.20;89.20;;;;;;5075635;28;20713;-77
2021/03/14 05:32:44;;;;;;;15.02;14.25;;;4.20;88.70;;;;;;5075515;28;20196;-76
2021/03/14 05:35:12;;;;;;;16.27;15.40;;;4.20;88.30;;;;;;5075467;28;20192;-77
2021/03/14 05:37:39;;;;;;;13.85;13.25;;;4.20;88.20;;;;;;5075278;28;20202;-77
2021/03/14 05:40:07;;;;;;;14.63;13.93;;;4.10;88.20;;;;;;5075282;28;20220;-77
2021/03/14 05:42:34;;;;;;;15.93;15.13;;;4.10;88.60;;;;;;5075258;28;20686;-76
2021/03/14 05:45:00;;;;;;;14.68;13.60;;;4.10;88.40;;;;;;5075340;28;20195;-76
2021/03/14 05:47:27;;;;;;;13.80;13.18;;;4.10;88.50;;;;;;5075164;28;20202;-77
2021/03/14 05:49:53;;;;;;;14.32;13.52;;;4.10;89.10;;;;;;5075354;28;20212;-77
2021/03/14 05:52:20;;;;;;;14.90;14.20;;;4.10;88.20;;;;;;5074984;28;20202;-76
2021/03/14 05:54:50;;;;;;;14.60;14.00;;;4.10;87.70;;;;;;5075081;28;20195;-77
2021/03/14 05:57:17;;;;;;;14.10;13.50;;;4.10;87.70;;;;;;5074838;28;20224;-77
2021/03/14 05:59:45;;;;;;;14.85;14.13;;;4.20;87.50;;;;;;5075147;28;20222;-76
2021/03/14 06:02:12;;;;;;;14.18;13.57;;;4.20;87.50;;;;;;5075050;28;20200;-77
2021/03/14 06:04:39;;;;;;;14.32;13.73;;;4.20;88.30;;;;;;5074798;28;20669;-77
2021/03/14 06:07:05;;;;;;;15.60;14.80;;;4.30;88.50;;;;;;5074787;28;20196;-77
2021/03/14 06:09:32;;;;;;;14.02;13.43;;;4.30;88.20;;;;;;5074784;28;20289;-77
2021/03/14 06:11:59;;;;;;;14.65;13.98;;;4.40;89.30;;;;;;5075113;28;20617;-77
2021/03/14 06:14:25;;;;;;;15.35;14.63;;;4.50;88.40;;;;;;5074023;28;20196;-77
2021/03/14 06:16:52;;;;;;;14.25;13.63;;;4.50;87.90;;;;;;5074503;28;20302;-77
2021/03/14 06:19:19;;;;;;;14.40;13.80;;;4.50;87.30;;;;;;5074657;28;20272;-77
2021/03/14 06:21:45;;;;;;;15.05;14.25;;;4.60;87.30;;;;;;5074586;28;20204;-77
2021/03/14 06:24:12;;;;;;;14.95;14.15;;;4.60;87.20;;;;;;5074603;28;20195;-77
2021/03/14 06:26:41;;;;;;;15.45;14.75;;;4.70;86.90;;;;;;5074432;28;20264;-77
2021/03/14 06:29:28;;;;;;;15.52;14.73;;;4.60;86.80;;;;;;5074399;28;20238;-77
2021/03/14 06:31:58;;;;;;;16.38;15.48;;;4.60;86.50;;;;;;5069686;28;20245;-77
2021/03/14 06:34:27;;;;;;;16.23;15.43;;;4.60;86.10;;;;;;5074312;28;20238;-77
2021/03/14 06:36:54;;;;;;;16.52;15.68;;;4.60;86.10;;;;;;5073937;28;20216;-77
2021/03/14 06:39:21;;;;;;;16.33;15.40;;;4.60;85.90;;;;;;5074367;28;20697;-77
2021/03/14 06:41:48;;;;;;;16.65;15.85;;;4.70;86.20;;;;;;5074199;28;20199;-77
2021/03/14 06:44:22;;;;;;;15.30;14.60;;;4.80;86.20;;;;;;5074280;28;20214;-77
2021/03/14 06:46:51;;;;;;;16.13;15.15;;;4.90;87.00;;;;;;5073683;28;20553;-77
2021/03/14 06:49:20;;;;;;;16.67;15.55;;;5.00;86.00;;;;;;5073968;28;20220;-77
2021/03/14 06:51:48;;;;;;;17.05;15.85;;;5.00;85.40;;;;;;5073919;28;20547;-77
2021/03/14 06:54:23;;;;;;;17.08;16.17;;;5.00;84.80;;;;;;5074078;28;20196;-77
2021/03/14 06:57:11;;;;;;;17.10;16.30;;;5.00;84.30;;;;;;5073827;28;20585;-77
2021/03/14 06:59:40;;;;;;;18.80;17.50;;;5.00;84.50;;;;;;5074024;28;20234;-77
2021/03/14 07:02:09;;;;;;;18.70;17.60;;;5.20;84.30;;;;;;5073950;28;20203;-77
2021/03/14 07:04:47;;;;;;;19.50;18.33;;;5.20;84.10;;;;;;5073703;28;20208;-76
2021/03/14 07:07:20;;;;;;;18.75;17.85;;;5.30;82.80;;;;;;5073433;28;20217;-77
2021/03/14 07:09:48;;;;;;;19.35;18.13;;;5.50;81.40;;;;;;5073575;28;20220;-77
2021/03/14 07:12:21;;;;;;;21.27;20.08;;;5.70;80.60;;;;;;5073621;28;20241;-77
2021/03/14 07:14:48;;;;;;;19.85;18.85;;;5.80;80.20;;;;;;5073750;28;20561;-77
2021/03/14 07:17:33;;;;;;;20.10;18.67;;;5.90;79.00;;;;;;5073292;28;20256;-77
2021/03/14 07:20:06;;;;;;;19.45;18.33;;;6.00;78.20;;;;;;5073343;28;20580;-77
2021/03/14 07:22:33;;;;;;;20.08;18.88;;;6.10;78.30;;;;;;5073381;28;20290;-77
2021/03/14 07:25:00;;;;;;;20.30;19.20;;;6.20;78.30;;;;;;5072415;28;20203;-77
2021/03/14 07:27:29;;;;;;;21.17;19.85;;;6.40;77.60;;;;;;5073143;28;20190;-77
2021/03/14 07:29:56;;;;;;;21.00;19.80;;;6.60;77.10;;;;;;5073292;28;20253;-77
2021/03/14 07:32:23;;;;;;;21.98;20.55;;;6.80;75.80;;;;;;5073226;28;20197;-77
2021/03/14 07:34:51;;;;;;;20.98;19.88;;;6.90;74.90;;;;;;5073339;28;20246;-77
2021/03/14 07:37:19;;;;;;;20.92;19.70;;;7.10;75.10;;;;;;5072866;28;20257;-77
2021/03/14 07:39:47;;;;;;;21.27;19.83;;;7.30;73.60;;;;;;5073115;28;20254;-77
2021/03/14 07:42:17;;;;;;;21.77;20.55;;;7.40;73.50;;;;;;5073197;28;20210;-77
2021/03/14 07:44:45;;;;;;;21.98;20.83;;;7.40;73.10;;;;;;5073208;28;20287;-77
2021/03/14 07:47:15;;;;;;;22.88;21.48;;;7.40;73.30;;;;;;5072536;28;20199;-77
2021/03/14 07:49:44;;;;;;;23.48;21.73;;;7.30;72.60;;;;;;5073062;28;20776;-77
2021/03/14 07:52:17;;;;;;;23.40;22.00;;;7.10;73.60;;;;;;5072819;28;20196;-77
2021/03/14 07:54:47;;;;;;;21.55;20.35;;;7.10;73.30;;;;;;5073033;28;20264;-78
2021/03/14 07:57:18;;;;;;;23.23;21.80;;;6.90;73.90;;;;;;5072620;28;20224;-77
2021/03/14 07:59:44;;;;;;;21.90;20.40;;;6.80;74.50;;;;;;5072899;28;20220;-77
2021/03/14 08:02:27;;;;;;;22.45;21.15;;;6.70;74.10;;;;;;5072788;28;20724;-77
2021/03/14 08:04:56;;;;;;;22.33;20.90;;;6.70;74.80;;;;;;5072635;28;20673;-77
2021/03/14 08:07:43;;;;;;;21.35;20.05;;;6.70;74.10;;;;;;5072611;28;20600;-77
2021/03/14 08:10:11;;;;;;;22.60;21.20;;;6.70;74.40;;;;;;5072562;28;20229;-77
2021/03/14 08:12:38;;;;;;;20.60;19.40;;;6.80;73.70;;;;;;5072674;28;20196;-77
2021/03/14 08:15:22;;;;;;;21.30;20.13;;;6.90;73.90;;;;;;5072753;28;20204;-77
2021/03/14 08:17:49;;;;;;;21.63;20.10;;;6.90;72.60;;;;;;5072673;28;20208;-77
2021/03/14 08:20:34;;;;;;;21.70;20.45;;;6.90;73.40;;;;;;5072623;28;20295;-77
2021/03/14 08:23:02;;;;;;;22.15;20.45;;;6.90;73.60;;;;;;5072646;28;20252;-77
2021/03/14 08:25:30;;;;;;;22.70;21.25;;;6.90;73.60;;;;;;5072430;28;20672;-76
2021/03/14 08:27:58;;;;;;;22.83;21.27;;;7.20;72.80;;;;;;5072508;28;20199;-77
2021/03/14 08:30:44;;;;;;;22.60;21.15;;;7.30;72.50;;;;;;5072579;28;20229;-78
2021/03/14 08:33:39;;;;;;;21.92;20.52;;;7.30;72.60;;;;;;5072621;28;20194;-77
2021/03/14 08:36:08;;;;;;;22.25;20.38;;;7.20;73.40;;;;;;5073075;28;20272;-77
2021/03/14 08:38:44;;;;;;;22.33;21.00;;;7.50;72.10;;;;;;5076655;28;20218;-77
2021/03/14 08:41:35;;;;;;;21.65;20.23;;;7.60;71.90;;;;;;5076781;28;20196;-77
2021/03/14 08:44:04;;;;;;;22.50;21.20;;;7.80;71.80;;;;;;5076491;28;20667;-77
2021/03/14 08:46:59;;;;;;;22.92;21.42;;;8.00;71.10;;;;;;5076049;28;20244;-76
2021/03/14 08:49:26;;;;;;;22.20;21.08;;;8.00;70.90;;;;;;5076419;28;20226;-77
2021/03/14 08:51:53;;;;;;;22.70;21.40;;;8.10;70.60;;;;;;5076162;28;20238;-77
2021/03/14 08:54:27;;;;;;;23.48;21.92;;;8.20;69.40;;;;;;5076387;28;20542;-77
2021/03/14 08:56:59;;;;;;;22.27;21.10;;;8.10;69.40;;;;;;5076102;28;20226;-77
2021/03/14 08:59:25;;;;;;;23.05;21.55;;;8.20;68.90;;;;;;5076145;28;20220;-77
2021/03/14 09:01:57;;;;;;;22.70;21.40;;;8.10;68.00;;;;;;5076122;28;20204;-77
2021/03/14 09:04:26;;;;;;;22.58;21.23;;;8.00;70.10;;;;;;5076034;28;20330;-77
2021/03/14 09:06:53;;;;;;;22.25;20.98;;;8.00;67.90;;;;;;5075811;28;20208;-78
2021/03/14 09:09:21;;;;;;;22.98;21.50;;;8.00;68.50;;;;;;5075933;28;20220;-77
2021/03/14 09:11:50;;;;;;;23.10;21.70;;;8.20;68.30;;;;;;5075892;28;20196;-77
2021/03/14 09:14:34;;;;;;;24.58;23.15;;;8.20;65.70;;;;;;5075952;28;20192;-77
2021/03/14 09:17:04;;;;;;;22.80;21.40;;;7.90;67.80;;;;;;5075486;28;20222;-77
2021/03/14 09:19:39;;;;;;;22.30;20.88;;;7.90;67.30;;;;;;5075750;28;20229;-77
2021/03/14 09:22:08;;;;;;;22.77;21.50;;;7.60;67.70;;;;;;5075796;28;20199;-77
2021/03/14 09:24:39;;;;;;;22.50;21.10;;;7.50;68.30;;;;;;5075739;28;20198;-77
2021/03/14 09:27:11;;;;;;;23.05;21.45;;;7.50;69.00;;;;;;5075479;28;20199;-77
2021/03/14 09:29:44;;;;;;;21.77;20.63;;;7.60;69.80;;;;;;5075553;28;20309;-77
2021/03/14 09:32:28;;;;;;;23.15;21.85;;;7.80;69.40;;;;;;5075729;28;20200;-77
2021/03/14 09:35:25;;;;;;;23.38;21.98;;;8.00;68.90;;;;;;5075517;28;20200;-77
2021/03/14 09:37:54;;;;;;;21.15;19.92;;;8.20;66.90;;;;;;5075391;28;20189;-77
2021/03/14 09:40:27;;;;;;;22.45;21.20;;;8.20;67.10;;;;;;5075499;28;20299;-77
2021/03/14 09:43:09;;;;;;;23.83;22.33;;;8.30;67.30;;;;;;5075493;28;20222;-77
2021/03/14 09:45:36;;;;;;;23.02;21.42;;;8.60;67.40;;;;;;5075293;28;20198;-77
2021/03/14 09:48:10;;;;;;;22.50;21.20;;;8.90;65.80;;;;;;5073682;28;20192;-77
2021/03/14 09:50:39;;;;;;;21.33;20.33;;;9.00;64.30;;;;;;5075239;28;20283;-77
2021/03/14 09:53:07;;;;;;;22.23;21.08;;;8.90;64.30;;;;;;5075074;28;20254;-77
2021/03/14 09:55:35;;;;;;;21.67;20.63;;;8.90;65.60;;;;;;5075167;28;20681;-77
2021/03/14 09:58:03;;;;;;;22.60;21.13;;;8.90;65.90;;;;;;5075056;28;20206;-77
2021/03/14 10:00:31;;;;;;;23.10;21.52;;;8.60;66.10;;;;;;5074904;28;20570;-77
2021/03/14 10:03:01;;;;;;;22.40;21.20;;;8.60;67.50;;;;;;5075039;28;20207;-78
2021/03/14 10:05:34;;;;;;;22.50;21.30;;;8.60;67.20;;;;;;5074995;28;20202;-76
2021/03/14 10:08:01;;;;;;;23.30;22.00;;;8.60;67.80;;;;;;5074961;28;20287;-78
2021/03/14 10:10:27;;;;;;;22.92;21.52;;;8.40;67.60;;;;;;5074869;28;20697;-77
2021/03/14 10:12:54;;;;;;;21.60;20.50;;;8.40;64.90;;;;;;5075161;28;20195;-77
2021/03/14 10:15:22;;;;;;;23.73;22.30;;;8.30;65.20;;;;;;5075224;28;20196;-76
2021/03/14 10:17:49;;;;;;;22.48;21.13;;;8.20;66.50;;;;;;5074792;28;20204;-77
2021/03/14 10:20:21;;;;;;;21.95;20.58;;;8.20;67.40;;;;;;5074804;28;20228;-77
2021/03/14 10:22:57;;;;;;;22.15;20.85;;;8.20;67.70;;;;;;5076044;28;20196;-77
2021/03/14 10:25:26;;;;;;;22.10;20.80;;;8.40;66.90;;;;;;5074527;28;20202;-77
2021/03/14 10:28:03;;;;;;;21.63;20.45;;;8.50;69.30;;;;;;5074634;28;20632;-77
2021/03/14 10:30:30;;;;;;;22.55;21.23;;;8.60;67.70;;;;;;5074716;28;20302;-77
2021/03/14 10:32:56;;;;;;;22.80;21.60;;;8.70;65.70;;;;;;5074493;28;20657;-77
2021/03/14 10:35:23;;;;;;;22.48;21.20;;;8.70;65.60;;;;;;5076821;28;20291;-77
2021/03/14 10:37:49;;;;;;;22.60;21.30;;;8.80;64.70;;;;;;5074929;28;20287;-77
2021/03/14 10:40:20;;;;;;;22.13;20.80;;;8.80;64.80;;;;;;5074123;28;20220;-77
2021/03/14 10:42:48;;;;;;;23.27;21.90;;;9.00;62.30;;;;;;5074455;28;20196;-77
2021/03/14 10:45:17;;;;;;;22.05;20.83;;;8.90;62.00;;;;;;5074388;28;20198;-77
2021/03/14 10:47:46;;;;;;;22.25;21.05;;;8.80;62.30;;;;;;5073708;28;20204;-77
2021/03/14 10:50:19;;;;;;;22.50;21.20;;;8.70;62.80;;;;;;5074076;28;20313;-77
2021/03/14 10:53:05;;;;;;;22.10;20.80;;;8.90;63.40;;;;;;5073771;28;20654;-77
2021/03/14 10:55:31;;;;;;;21.70;20.60;;;9.10;62.90;;;;;;5073799;28;20253;-76
2021/03/14 10:58:08;;;;;;;22.73;21.33;;;9.20;61.30;;;;;;5073980;28;20204;-77
2021/03/14 11:00:36;;;;;;;22.70;21.40;;;9.30;63.70;;;;;;5073685;28;20200;-77
2021/03/14 11:03:11;;;;;;;23.23;21.92;;;9.40;60.80;;;;;;5073903;28;20756;-77
2021/03/14 11:05:39;;;;;;;22.20;21.00;;;9.60;61.70;;;;;;5073684;28;20202;-76
2021/03/14 11:08:06;;;;;;;23.20;21.83;;;9.90;61.20;;;;;;5073688;28;20203;-76
2021/03/14 11:10:33;;;;;;;22.02;20.85;;;10.00;60.50;;;;;;5073654;28;20207;-78
2021/03/14 11:12:59;;;;;;;23.17;21.75;;;9.90;59.90;;;;;;5073566;28;20200;-77
2021/03/14 11:15:27;;;;;;;23.40;21.95;;;9.80;60.00;;;;;;5073345;28;20204;-77
2021/03/14 11:17:56;;;;;;;23.27;21.70;;;9.70;60.30;;;;;;5073460;28;20188;-77
2021/03/14 11:20:25;;;;;;;23.13;21.75;;;9.80;60.10;;;;;;5073500;28;20231;-77
2021/03/14 11:22:52;;;;;;;22.58;21.40;;;9.80;58.10;;;;;;5073372;28;20198;-77
2021/03/14 11:25:20;;;;;;;24.08;22.67;;;9.60;57.10;;;;;;5073418;28;20203;-77
2021/03/14 11:27:47;;;;;;;22.38;21.10;;;9.50;56.60;;;;;;5073256;28;20188;-77
2021/03/14 11:30:15;;;;;;;22.15;20.95;;;9.40;56.70;;;;;;5073311;28;20747;-77
2021/03/14 11:32:42;;;;;;;24.02;22.63;;;9.50;56.80;;;;;;5073188;28;20290;-77
2021/03/14 11:35:09;;;;;;;23.45;22.20;;;9.80;57.10;;;;;;5073306;28;20287;-77
2021/03/14 11:37:37;;;;;;;23.13;21.83;;;9.90;56.40;;;;;;5073059;28;20220;-77
2021/03/14 11:40:06;;;;;;;22.67;21.58;;;10.20;56.50;;;;;;5073061;28;20222;-77
2021/03/14 11:42:32;;;;;;;22.90;21.55;;;10.20;54.10;;;;;;5073080;28;20665;-77
2021/03/14 11:44:59;;;;;;;24.25;22.65;;;10.00;54.80;;;;;;5073172;28;20290;-77
2021/03/14 11:47:25;;;;;;;23.17;21.50;;;9.90;55.80;;;;;;5072598;28;20192;-77
2021/03/14 11:49:52;;;;;;;23.27;21.67;;;9.80;55.40;;;;;;5072885;28;20772;-77
2021/03/14 11:52:18;;;;;;;22.27;20.90;;;9.80;55.30;;;;;;5072635;28;20223;-77
2021/03/14 11:54:46;;;;;;;23.33;21.92;;;9.80;55.50;;;;;;5073132;28;20635;-77
2021/03/14 11:57:12;;;;;;;22.90;21.40;;;9.80;55.40;;;;;;5072584;28;20586;-77
2021/03/14 11:59:39;;;;;;;23.15;21.83;;;9.70;55.90;;;;;;5072695;28;20232;-77
2021/03/14 12:02:06;;;;;;;24.38;23.08;;;9.80;55.90;;;;;;5072825;28;20666;-77
2021/03/14 12:04:33;;;;;;;22.48;21.15;;;9.60;55.20;;;;;;5072670;28;20298;-78
2021/03/14 12:06:59;;;;;;;22.90;21.50;;;9.60;56.30;;;;;;5072515;28;20602;-77
2021/03/14 12:09:26;;;;;;;23.75;21.83;;;9.50;56.90;;;;;;5072747;28;20215;-77
2021/03/14 12:11:53;;;;;;;22.88;21.50;;;9.70;56.70;;;;;;5072009;28;20203;-77
2021/03/14 12:14:21;;;;;;;22.60;21.20;;;9.70;57.00;;;;;;5072663;28;20252;-77
2021/03/14 12:16:47;;;;;;;23.38;21.75;;;9.60;57.40;;;;;;5072381;28;20211;-77
2021/03/14 12:19:13;;;;;;;21.92;20.75;;;9.20;58.50;;;;;;5072509;28;20223;-77
2021/03/14 12:21:40;;;;;;;22.63;21.30;;;9.10;60.60;;;;;;5072758;28;20249;-77
2021/03/14 12:24:07;;;;;;;23.30;21.95;;;9.00;61.70;;;;;;5072665;28;20202;-77
2021/03/14 12:26:33;;;;;;;23.20;21.90;;;8.90;63.30;;;;;;5072425;28;20199;-77
2021/03/14 12:29:01;;;;;;;23.85;22.10;;;8.80;65.00;;;;;;5072584;28;20716;-77
2021/03/14 12:31:28;;;;;;;26.58;24.83;;;8.70;66.50;;;;;;5073782;28;20264;-77
2021/03/14 12:33:54;;;;;;;22.50;21.30;;;8.50;65.80;;;;;;5075002;28;20199;-77
2021/03/14 12:36:20;;;;;;;22.20;20.90;;;8.30;66.70;;;;;;5072560;28;20215;-76
2021/03/14 12:38:47;;;;;;;21.67;20.38;;;8.10;68.90;;;;;;5072449;28;20302;-76
2021/03/14 12:41:13;;;;;;;22.77;21.00;;;7.90;70.60;;;;;;5072876;28;20287;-77
2021/03/14 12:43:40;;;;;;;22.95;21.48;;;7.90;71.80;;;;;;5072754;28;20680;-77